Time;durP1;ratioP1;P1;durP2;ratioP2;P2;SDS_P1;SDS_P2;PMS_P1;PMS_P2;Temp;Humidity;BMP_temperature;BMP_pressure;BME280_temperature;BME280_humidity;BME280_pressure;Samples;Min_cycle;Max_cycle;Signal;HPM_P1;HPM_P2
2021/09/09 00:02:21;;;;;;;24.50;17.87;;;;;;;14.08;62.52;100191.00;1756482;81;21086;-40
2021/09/09 00:04:48;;;;;;;29.32;18.55;;;;;;;14.04;62.44;100192.28;1756430;81;20968;-40
2021/09/09 00:07:19;;;;;;;25.75;19.10;;;;;;;14.00;62.50;100190.06;1763106;81;20941;-40
2021/09/09 00:09:49;;;;;;;27.00;18.85;;;;;;;13.96;62.50;100193.88;1769760;81;20940;-40
2021/09/09 00:12:16;;;;;;;25.27;19.60;;;;;;;13.86;62.45;100193.33;1769711;81;21036;-40
2021/09/09 00:14:45;;;;;;;24.65;18.27;;;;;;;13.77;62.85;100192.77;1769704;81;20889;-40
2021/09/09 00:17:12;;;;;;;25.30;17.80;;;;;;;13.76;63.02;100190.39;1756562;81;20997;-40
2021/09/09 00:19:40;;;;;;;25.43;18.05;;;;;;;13.78;63.02;100190.83;1756474;81;21005;-40
2021/09/09 00:22:07;;;;;;;27.35;19.25;;;;;;;13.80;63.11;100192.60;1756461;81;20945;-40
2021/09/09 00:24:34;;;;;;;26.50;19.87;;;;;;;13.80;63.21;100193.97;1756588;81;21700;-40
2021/09/09 00:27:00;;;;;;;30.48;19.35;;;;;;;13.82;63.33;100202.59;1753522;80;21156;-40
2021/09/09 00:29:29;;;;;;;28.83;19.45;;;;;;;13.82;63.43;100199.86;1756568;81;20984;-40
2021/09/09 00:31:57;;;;;;;26.05;19.10;;;;;;;13.81;63.19;100199.64;1755987;81;21060;-41
2021/09/09 00:34:25;;;;;;;26.80;20.45;;;;;;;13.80;63.04;100204.30;1741128;81;21093;-40
2021/09/09 00:36:52;;;;;;;27.67;18.60;;;;;;;13.78;62.91;100194.92;1735153;82;21040;-40
2021/09/09 00:39:18;;;;;;;26.30;18.48;;;;;;;13.76;63.06;100195.27;1738269;80;21820;-40
2021/09/09 00:41:44;;;;;;;25.97;19.20;;;;;;;13.72;62.92;100201.80;1743546;81;21024;-40
2021/09/09 00:44:26;;;;;;;25.05;16.90;;;;;;;13.65;62.88;100201.67;1743251;82;20981;-40
2021/09/09 00:47:04;;;;;;;26.60;18.50;;;;;;;13.66;62.93;100200.50;1743526;81;21528;-40
2021/09/09 00:49:31;;;;;;;26.30;18.65;;;;;;;13.69;63.00;100197.08;1743226;82;21536;-40
2021/09/09 00:51:58;;;;;;;26.65;17.87;;;;;;;13.71;63.00;100196.92;1743678;81;21104;-40
2021/09/09 00:54:24;;;;;;;26.23;18.37;;;;;;;13.72;62.94;100200.44;1742953;82;20970;-40
2021/09/09 00:56:50;;;;;;;27.85;19.07;;;;;;;13.71;62.80;100198.28;1748859;80;21080;-40
2021/09/09 00:59:18;;;;;;;26.62;19.15;;;;;;;13.73;62.67;100203.38;1763741;81;21046;-40
2021/09/09 01:01:46;;;;;;;26.75;20.27;;;;;;;13.71;62.57;100194.77;1763983;81;21080;-40
2021/09/09 01:04:14;;;;;;;29.60;20.05;;;;;;;13.69;62.62;100201.17;1764006;81;21828;-40
2021/09/09 01:06:40;;;;;;;27.93;20.10;;;;;;;13.64;62.73;100200.88;1751630;81;20985;-40
2021/09/09 01:09:07;;;;;;;26.75;19.50;;;;;;;13.60;62.78;100197.88;1713803;82;20935;-40
2021/09/09 01:11:35;;;;;;;28.42;19.65;;;;;;;13.56;62.83;100197.78;1707734;82;21049;-40
2021/09/09 01:14:13;;;;;;;25.97;19.48;;;;;;;13.52;62.82;100201.59;1713604;83;21598;-40
2021/09/09 01:16:41;;;;;;;30.02;18.57;;;;;;;13.46;62.96;100193.70;1713539;83;21528;-40
2021/09/09 01:19:08;;;;;;;27.25;17.92;;;;;;;13.46;63.08;100195.06;1713520;83;20942;-40
2021/09/09 01:21:36;;;;;;;30.23;19.98;;;;;;;13.48;62.97;100198.23;1713570;82;20973;-40
2021/09/09 01:24:18;;;;;;;26.35;19.17;;;;;;;13.48;62.90;100199.59;1713518;82;21579;-40
2021/09/09 01:27:04;;;;;;;27.22;18.87;;;;;;;13.48;62.98;100197.44;1728849;80;21081;-40
2021/09/09 01:29:38;;;;;;;26.37;19.30;;;;;;;13.48;62.97;100199.59;1737142;80;21104;-40
2021/09/09 01:32:06;;;;;;;26.55;19.35;;;;;;;13.47;62.97;100202.09;1743085;81;21005;-40
2021/09/09 01:34:33;;;;;;;31.05;21.00;;;;;;;13.46;62.99;100190.97;1755845;81;21015;-40
2021/09/09 01:37:00;;;;;;;27.27;19.77;;;;;;;13.44;62.95;100193.28;1755054;80;21855;-40
2021/09/09 01:39:28;;;;;;;28.75;19.98;;;;;;;13.41;62.94;100195.91;1756303;80;21483;-40
2021/09/09 01:41:56;;;;;;;29.82;20.90;;;;;;;13.38;62.92;100196.64;1757141;80;21115;-40
2021/09/09 01:44:23;;;;;;;30.35;20.72;;;;;;;13.34;62.95;100194.42;1756250;81;21084;-40
2021/09/09 01:48:00;;;;;;;30.48;18.65;;;;;;;13.32;63.13;100196.70;1779116;79;22674;-40
2021/09/09 01:50:27;;;;;;;25.65;18.60;;;;;;;13.26;63.19;100198.14;1738816;82;20990;-40
2021/09/09 01:52:53;;;;;;;26.80;18.98;;;;;;;13.30;63.18;100191.62;1739001;82;21114;-40
2021/09/09 01:55:21;;;;;;;27.87;19.98;;;;;;;13.33;63.13;100188.18;1738674;82;21009;-40
2021/09/09 01:57:49;;;;;;;28.95;20.15;;;;;;;13.34;63.12;100188.41;1733306;80;21065;-40
2021/09/09 02:00:16;;;;;;;29.45;20.10;;;;;;;13.32;62.98;100186.59;1757272;81;20973;-40
2021/09/09 02:02:44;;;;;;;33.75;20.45;;;;;;;13.29;62.86;100187.32;1756793;81;20988;-40
2021/09/09 02:05:12;;;;;;;26.57;19.73;;;;;;;13.26;62.82;100185.89;1756986;81;21198;-40
2021/09/09 02:07:40;;;;;;;28.90;20.08;;;;;;;13.22;62.95;100188.52;1756997;81;20973;-40
2021/09/09 02:10:09;;;;;;;28.85;20.32;;;;;;;13.19;63.39;100193.33;1756933;81;21910;-40
2021/09/09 02:12:37;;;;;;;29.27;20.30;;;;;;;13.17;63.42;100194.24;1756875;81;21012;-40
2021/09/09 02:15:06;;;;;;;29.50;19.95;;;;;;;13.14;63.37;100196.89;1756881;81;20922;-40
2021/09/09 02:17:34;;;;;;;25.57;18.62;;;;;;;13.15;63.56;100190.31;1757134;81;21064;-40
2021/09/09 02:20:00;;;;;;;27.93;20.32;;;;;;;13.19;63.57;100193.33;1757166;81;21534;-40
2021/09/09 02:22:27;;;;;;;29.67;20.43;;;;;;;13.23;63.44;100191.47;1756819;81;20938;-40
2021/09/09 02:24:54;;;;;;;28.65;20.32;;;;;;;13.24;63.36;100193.62;1726701;83;21025;-40
2021/09/09 02:27:22;;;;;;;28.85;20.92;;;;;;;13.25;63.27;100190.55;1751323;80;21032;-40
2021/09/09 02:29:49;;;;;;;28.07;21.00;;;;;;;13.25;63.15;100189.19;1756982;81;21135;-40
2021/09/09 02:32:15;;;;;;;30.02;21.42;;;;;;;13.26;63.36;100196.22;1756937;81;20992;-40
2021/09/09 02:34:42;;;;;;;27.95;21.45;;;;;;;13.24;63.51;100188.96;1753431;80;21029;-40
2021/09/09 02:37:08;;;;;;;31.45;21.62;;;;;;;13.23;63.75;100193.39;1748585;82;21531;-40
2021/09/09 02:39:40;;;;;;;30.88;21.62;;;;;;;13.20;63.78;100189.47;1748795;82;21028;-40
2021/09/09 02:42:06;;;;;;;24.82;19.12;;;;;;;13.18;63.83;100190.38;1748430;81;21076;-40
2021/09/09 02:44:32;;;;;;;25.60;19.25;;;;;;;13.20;63.88;100188.10;1752784;81;21077;-40
2021/09/09 02:47:00;;;;;;;25.92;19.87;;;;;;;13.25;63.76;100188.39;1749197;80;21000;-40
2021/09/09 02:49:26;;;;;;;28.50;19.15;;;;;;;13.28;63.72;100187.67;1743839;82;21500;-40
2021/09/09 02:51:55;;;;;;;28.38;19.07;;;;;;;13.26;63.58;100189.41;1743911;82;20998;-40
2021/09/09 02:54:22;;;;;;;26.42;19.77;;;;;;;13.24;63.37;100190.33;1743722;81;21136;-40
2021/09/09 02:56:49;;;;;;;26.50;19.92;;;;;;;13.19;63.24;100186.52;1743664;82;20970;-40
2021/09/09 02:59:16;;;;;;;27.52;20.08;;;;;;;13.18;63.26;100190.95;1742983;80;21069;-40
2021/09/09 03:01:42;;;;;;;29.75;21.20;;;;;;;13.14;63.28;100190.88;1743097;82;20969;-40
2021/09/09 03:04:10;;;;;;;27.45;20.55;;;;;;;13.11;63.28;100188.88;1743497;80;21045;-40
2021/09/09 03:06:36;;;;;;;28.85;20.02;;;;;;;13.06;63.21;100187.77;1743174;82;21036;-40
2021/09/09 03:09:03;;;;;;;30.95;21.40;;;;;;;13.03;63.32;100187.09;1743555;82;20930;-40
2021/09/09 03:11:30;;;;;;;26.60;19.37;;;;;;;12.74;63.37;100146.22;1743212;82;21015;-40
2021/09/09 03:13:57;;;;;;;24.95;18.50;;;;;;;12.97;63.38;100187.18;1743351;82;21469;-40
2021/09/09 03:16:23;;;;;;;24.98;18.90;;;;;;;13.01;63.33;100185.32;1743153;82;21033;-40
2021/09/09 03:18:50;;;;;;;26.87;19.15;;;;;;;13.01;63.15;100192.13;1743259;82;21494;-40
2021/09/09 03:21:18;;;;;;;27.02;20.08;;;;;;;12.97;63.22;100181.73;1743183;81;21517;-40
2021/09/09 03:23:45;;;;;;;25.40;19.07;;;;;;;12.96;63.33;100189.11;1743273;82;20994;-40
2021/09/09 03:26:13;;;;;;;31.65;19.95;;;;;;;12.96;63.42;100186.39;1743348;82;20998;-40
2021/09/09 03:28:40;;;;;;;30.17;21.48;;;;;;;12.96;63.25;100192.41;1738783;81;21096;-40
2021/09/09 03:31:07;;;;;;;30.57;21.82;;;;;;;12.92;63.36;100187.45;1741763;82;21196;-40
2021/09/09 03:33:33;;;;;;;29.48;20.80;;;;;;;12.87;63.67;100185.00;1743245;82;20973;-40
2021/09/09 03:36:00;;;;;;;28.12;21.93;;;;;;;12.82;64.02;100186.06;1735985;80;20978;-40
2021/09/09 03:38:27;;;;;;;28.90;19.98;;;;;;;12.79;64.18;100191.41;1739103;80;21449;-40
2021/09/09 03:40:54;;;;;;;25.23;18.52;;;;;;;12.80;64.37;100188.91;1743390;82;21519;-40
2021/09/09 03:43:20;;;;;;;31.75;20.50;;;;;;;12.83;64.43;100196.38;1743222;80;21520;-40
2021/09/09 03:45:48;;;;;;;28.50;20.68;;;;;;;12.86;64.39;100192.38;1743294;82;21559;-40
2021/09/09 03:48:16;;;;;;;29.80;20.68;;;;;;;12.88;64.42;100193.36;1754517;81;20989;-40
2021/09/09 03:50:42;;;;;;;26.07;19.85;;;;;;;12.83;64.63;100195.79;1756597;81;21037;-40
2021/09/09 03:53:10;;;;;;;26.12;19.70;;;;;;;12.78;64.92;100196.66;1756580;81;21001;-40
2021/09/09 03:55:37;;;;;;;26.82;19.65;;;;;;;12.80;64.88;100202.52;1756658;81;21267;-40
2021/09/09 03:58:05;;;;;;;27.35;19.87;;;;;;;12.82;64.59;100202.97;1756570;81;21563;-40
2021/09/09 04:00:32;;;;;;;29.63;20.35;;;;;;;12.82;64.46;100207.05;1756696;81;20965;-40
2021/09/09 04:02:59;;;;;;;23.00;17.82;;;;;;;12.81;64.61;100205.46;1756572;81;20982;-40
2021/09/09 04:05:25;;;;;;;28.62;20.37;;;;;;;12.84;64.51;100200.09;1756448;81;21083;-40
2021/09/09 04:07:52;;;;;;;27.65;19.77;;;;;;;12.92;64.65;100210.59;1728965;80;21095;-40
2021/09/09 04:10:19;;;;;;;30.02;21.25;;;;;;;12.91;64.86;100209.00;1747518;80;20979;-40
2021/09/09 04:12:46;;;;;;;27.45;20.85;;;;;;;12.86;65.26;100206.55;1756383;80;21060;-40
2021/09/09 04:15:15;;;;;;;27.67;19.95;;;;;;;12.88;65.47;100205.61;1756553;81;21033;-40
2021/09/09 04:17:41;;;;;;;29.80;21.73;;;;;;;12.91;65.53;100207.64;1756783;81;21495;-40
2021/09/09 04:20:11;;;;;;;29.80;22.93;;;;;;;12.92;65.79;100214.67;1756586;81;21147;-40
2021/09/09 04:22:37;;;;;;;27.82;20.88;;;;;;;12.83;66.11;100216.80;1756857;81;21552;-40
2021/09/09 04:25:06;;;;;;;28.25;19.92;;;;;;;12.78;66.34;100212.38;1756599;81;21037;-40
2021/09/09 04:27:33;;;;;;;29.52;20.65;;;;;;;12.81;66.59;100208.97;1756579;81;21005;-40
2021/09/09 04:29:59;;;;;;;32.73;22.15;;;;;;;12.87;66.70;100208.93;1756596;81;21012;-40
2021/09/09 04:32:26;;;;;;;29.45;21.05;;;;;;;12.90;66.68;100206.05;1756453;81;21140;-40
2021/09/09 04:34:52;;;;;;;31.02;21.60;;;;;;;12.93;66.82;100208.06;1756599;81;20950;-40
2021/09/09 04:37:19;;;;;;;34.27;21.90;;;;;;;13.01;66.81;100203.02;1735601;80;21004;-40
2021/09/09 04:39:46;;;;;;;29.82;22.70;;;;;;;13.10;66.66;100209.05;1726537;83;20992;-40
2021/09/09 04:42:12;;;;;;;31.02;21.62;;;;;;;13.13;66.48;100207.00;1752691;81;21520;-40
2021/09/09 04:44:39;;;;;;;30.55;20.80;;;;;;;13.22;66.54;100211.66;1748682;80;21096;-40
2021/09/09 04:47:05;;;;;;;29.35;20.88;;;;;;;13.34;66.34;100208.83;1756720;81;21160;-41
2021/09/09 04:49:32;;;;;;;30.75;20.02;;;;;;;13.42;66.29;100198.86;1756437;81;20973;-40
2021/09/09 04:51:59;;;;;;;30.40;20.88;;;;;;;13.44;66.47;100204.75;1756446;81;20921;-40
2021/09/09 04:54:26;;;;;;;27.27;20.43;;;;;;;13.48;66.51;100203.67;1756701;81;21016;-40
2021/09/09 04:56:52;;;;;;;28.75;20.75;;;;;;;13.56;66.54;100201.08;1755255;80;21783;-40
2021/09/09 04:59:19;;;;;;;30.52;19.80;;;;;;;13.59;66.63;100199.02;1744805;80;21076;-40
2021/09/09 05:01:47;;;;;;;27.93;19.05;;;;;;;13.67;66.39;100200.73;1756511;81;21540;-40
2021/09/09 05:04:13;;;;;;;29.75;20.72;;;;;;;13.73;66.39;100196.57;1756652;81;20965;-40
2021/09/09 05:06:40;;;;;;;27.32;20.15;;;;;;;13.80;66.58;100195.33;1733165;80;21109;-40
2021/09/09 05:09:07;;;;;;;27.65;20.20;;;;;;;13.83;66.72;100195.42;1726384;83;21136;-40
2021/09/09 05:11:35;;;;;;;30.45;21.25;;;;;;;13.86;66.98;100191.17;1726304;82;21544;-40
2021/09/09 05:14:02;;;;;;;29.42;21.60;;;;;;;13.91;67.29;100193.60;1738910;80;20965;-40
2021/09/09 05:16:29;;;;;;;27.67;19.90;;;;;;;13.97;67.56;100192.16;1756803;81;21495;-40
2021/09/09 05:18:56;;;;;;;33.13;20.90;;;;;;;14.06;67.83;100196.02;1756612;81;21045;-40
2021/09/09 05:21:23;;;;;;;31.57;22.15;;;;;;;14.16;68.00;100194.06;1756327;81;21134;-40
2021/09/09 05:23:50;;;;;;;35.73;23.12;;;;;;;14.24;67.97;100195.17;1756618;81;21570;-40
2021/09/09 05:26:16;;;;;;;41.60;25.50;;;;;;;14.29;67.84;100194.88;1756932;81;21007;-40
2021/09/09 05:28:42;;;;;;;37.70;23.40;;;;;;;14.32;67.85;100194.73;1749299;81;21077;-40
2021/09/09 05:31:09;;;;;;;34.58;23.40;;;;;;;14.41;67.84;100189.06;1726448;83;21023;-40
2021/09/09 05:33:36;;;;;;;36.10;23.42;;;;;;;14.51;67.73;100189.81;1742573;81;21015;-40
2021/09/09 05:36:04;;;;;;;39.92;24.57;;;;;;;14.60;67.66;100191.14;1757068;81;20918;-41
2021/09/09 05:38:31;;;;;;;36.88;24.02;;;;;;;14.65;67.80;100192.77;1756497;81;21017;-40
2021/09/09 05:40:57;;;;;;;33.15;20.27;;;;;;;14.71;68.21;100191.31;1756522;81;21011;-40
2021/09/09 05:43:26;;;;;;;27.67;19.10;;;;;;;14.78;67.82;100185.94;1756422;81;21519;-40
2021/09/09 05:45:53;;;;;;;23.47;17.23;;;;;;;14.89;67.56;100184.74;1756576;81;21195;-40
2021/09/09 05:48:20;;;;;;;26.82;17.87;;;;;;;15.04;66.91;100190.05;1756250;81;21056;-40
2021/09/09 05:50:47;;;;;;;26.55;18.62;;;;;;;15.18;66.44;100185.35;1754878;80;21480;-40
2021/09/09 05:53:13;;;;;;;26.48;18.45;;;;;;;15.27;65.92;100189.16;1736108;80;21025;-40
2021/09/09 05:55:40;;;;;;;28.90;18.30;;;;;;;15.35;66.02;100189.45;1726427;82;21095;-40
2021/09/09 05:58:08;;;;;;;26.20;18.20;;;;;;;15.44;66.00;100185.28;1726469;82;21017;-40
2021/09/09 06:00:34;;;;;;;24.72;17.32;;;;;;;15.54;65.79;100183.90;1726196;83;21492;-40
2021/09/09 06:03:02;;;;;;;23.27;16.55;;;;;;;15.67;65.88;100183.06;1726382;83;21044;-40
2021/09/09 06:05:29;;;;;;;29.18;17.15;;;;;;;15.81;64.96;100181.84;1726309;83;21029;-40
2021/09/09 06:07:56;;;;;;;25.30;17.20;;;;;;;15.94;64.65;100181.20;1726308;83;21016;-40
2021/09/09 06:10:22;;;;;;;24.70;16.17;;;;;;;16.03;64.08;100176.22;1663541;83;21135;-40
2021/09/09 06:12:49;;;;;;;24.70;16.45;;;;;;;16.13;63.45;100180.79;1748693;81;21000;-40
2021/09/09 06:15:16;;;;;;;21.62;15.28;;;;;;;16.24;63.35;100178.38;1756594;81;20973;-40
2021/09/09 06:17:44;;;;;;;25.15;15.23;;;;;;;16.33;62.80;100170.62;1756569;81;20990;-40
2021/09/09 06:20:14;;;;;;;21.35;14.35;;;;;;;16.43;62.08;100174.62;1736647;80;21103;-40
2021/09/09 06:22:42;;;;;;;25.45;14.47;;;;;;;16.54;62.00;100180.97;1743784;80;21790;-40
2021/09/09 06:25:10;;;;;;;23.87;12.85;;;;;;;16.63;62.43;100177.36;1751643;80;21044;-40
2021/09/09 06:27:38;;;;;;;23.15;13.15;;;;;;;16.78;61.38;100179.61;1729634;81;21016;-40
2021/09/09 06:30:07;;;;;;;20.90;13.85;;;;;;;16.95;61.00;100178.34;1756732;81;20925;-40
2021/09/09 06:32:33;;;;;;;23.62;12.58;;;;;;;17.10;60.29;100174.31;1756531;81;21056;-40
2021/09/09 06:35:00;;;;;;;17.55;11.88;;;;;;;17.24;59.74;100179.28;1756572;81;21146;-40
2021/09/09 06:37:27;;;;;;;22.07;12.60;;;;;;;17.38;59.62;100181.30;1756665;81;20981;-41
2021/09/09 06:39:53;;;;;;;17.62;12.37;;;;;;;17.52;58.86;100178.65;1756596;81;21008;-40
2021/09/09 06:42:22;;;;;;;18.70;12.10;;;;;;;17.64;58.38;100185.75;1756492;81;21029;-40
2021/09/09 06:44:48;;;;;;;19.87;11.18;;;;;;;17.76;57.89;100182.67;1756644;80;21053;-40
2021/09/09 06:47:15;;;;;;;15.23;10.30;;;;;;;17.87;56.84;100178.56;1756366;81;21197;-41
2021/09/09 06:49:42;;;;;;;17.05;10.58;;;;;;;17.99;56.27;100179.58;1756536;81;21005;-40
2021/09/09 06:52:08;;;;;;;16.25;11.20;;;;;;;18.08;56.20;100184.89;1754694;80;21635;-40
2021/09/09 06:54:35;;;;;;;15.50;9.85;;;;;;;18.20;55.38;100183.74;1756669;81;21008;-40
2021/09/09 06:57:04;;;;;;;18.17;10.32;;;;;;;18.30;54.97;100180.20;1694510;83;21475;-40
2021/09/09 06:59:31;;;;;;;19.05;9.98;;;;;;;18.40;54.94;100186.28;1691712;84;21129;-40
2021/09/09 07:01:57;;;;;;;17.42;9.50;;;;;;;18.53;55.09;100191.62;1675205;84;21591;-40
2021/09/09 07:04:24;;;;;;;17.02;9.40;;;;;;;18.65;54.97;100191.22;1702395;84;21058;-40
2021/09/09 07:06:50;;;;;;;17.48;9.78;;;;;;;18.77;53.01;100187.88;1702574;84;21101;-40
2021/09/09 07:09:17;;;;;;;11.75;9.15;;;;;;;18.84;53.07;100196.09;1703691;84;21045;-40
2021/09/09 07:11:46;;;;;;;16.05;9.68;;;;;;;18.91;52.58;100197.48;1728635;82;21029;-40
2021/09/09 07:14:13;;;;;;;17.77;9.83;;;;;;;18.98;52.02;100195.48;1716067;82;21074;-40
2021/09/09 07:16:39;;;;;;;14.63;10.20;;;;;;;19.08;52.72;100198.02;1720688;82;21038;-40
2021/09/09 07:19:07;;;;;;;14.10;9.98;;;;;;;19.19;52.78;100198.00;1720597;83;21025;-41
2021/09/09 07:21:34;;;;;;;16.70;10.03;;;;;;;19.30;52.85;100192.67;1720395;83;21084;-40
2021/09/09 07:24:00;;;;;;;12.47;9.03;;;;;;;19.42;52.39;100192.81;1720621;83;21112;-41
2021/09/09 07:26:27;;;;;;;15.15;10.10;;;;;;;19.53;52.02;100198.50;1720447;83;20932;-41
2021/09/09 07:28:54;;;;;;;14.33;9.63;;;;;;;19.66;51.59;100196.08;1720416;83;20983;-40
2021/09/09 07:31:20;;;;;;;17.48;10.30;;;;;;;19.79;50.82;100195.84;1691614;84;21593;-41
2021/09/09 07:33:47;;;;;;;15.85;9.98;;;;;;;19.89;50.91;100202.47;1706060;83;21061;-41
2021/09/09 07:36:15;;;;;;;17.02;10.30;;;;;;;19.96;50.26;100199.08;1721003;83;20938;-40
2021/09/09 07:38:41;;;;;;;16.17;10.23;;;;;;;20.06;50.38;100209.04;1732091;82;21519;-41
2021/09/09 07:41:08;;;;;;;18.85;9.90;;;;;;;20.14;50.15;100211.95;1732124;82;21065;-41
2021/09/09 07:43:35;;;;;;;16.10;10.68;;;;;;;20.24;49.87;100207.73;1728268;82;20995;-41
2021/09/09 07:46:02;;;;;;;15.68;10.20;;;;;;;20.34;49.97;100213.01;1720894;82;21045;-41
2021/09/09 07:48:28;;;;;;;14.58;9.90;;;;;;;20.45;49.43;100211.56;1714758;82;21143;-41
2021/09/09 07:50:55;;;;;;;13.28;9.55;;;;;;;20.55;49.15;100214.83;1691747;84;21100;-41
2021/09/09 07:53:22;;;;;;;15.30;9.60;;;;;;;20.65;49.13;100211.20;1691679;84;21568;-41
2021/09/09 07:55:50;;;;;;;14.83;10.05;;;;;;;20.80;49.86;100212.05;1695646;83;21085;-41
2021/09/09 07:58:17;;;;;;;16.57;10.03;;;;;;;20.96;49.03;100212.11;1720429;83;21813;-41
2021/09/09 08:00:44;;;;;;;13.13;9.58;;;;;;;21.08;48.48;100211.58;1720407;83;21100;-41
2021/09/09 08:03:10;;;;;;;19.75;10.18;;;;;;;21.17;47.48;100207.17;1720283;83;21017;-41
2021/09/09 08:05:37;;;;;;;13.10;9.63;;;;;;;21.25;47.71;100205.14;1720319;83;20988;-41
2021/09/09 08:08:06;;;;;;;16.45;9.95;;;;;;;21.33;47.04;100203.86;1720333;83;20951;-41
2021/09/09 08:10:35;;;;;;;17.50;10.67;;;;;;;21.41;47.47;100204.55;1720567;83;20971;-41
2021/09/09 08:13:01;;;;;;;15.70;9.80;;;;;;;21.46;47.50;100195.81;1718754;83;21079;-41
2021/09/09 08:15:28;;;;;;;12.95;9.75;;;;;;;21.55;47.35;100188.60;1691413;84;20967;-41
2021/09/09 08:17:55;;;;;;;13.15;9.50;;;;;;;21.71;47.77;100189.39;1691561;84;21627;-41
2021/09/09 08:20:21;;;;;;;16.35;9.88;;;;;;;21.84;46.87;100193.16;1691540;84;21122;-41
2021/09/09 08:22:48;;;;;;;15.48;9.93;;;;;;;21.95;47.00;100189.68;1703229;83;21106;-41
2021/09/09 08:25:16;;;;;;;14.18;10.00;;;;;;;22.09;46.85;100185.33;1701168;83;21123;-41
2021/09/09 08:27:42;;;;;;;14.07;9.83;;;;;;;22.26;46.60;100189.03;1695750;83;21083;-41
2021/09/09 08:30:11;;;;;;;14.13;9.98;;;;;;;22.39;46.39;100186.45;1720429;83;21002;-41
2021/09/09 08:32:38;;;;;;;15.15;9.15;;;;;;;22.47;46.14;100183.15;1720481;83;21109;-41
2021/09/09 08:35:06;;;;;;;13.10;8.90;;;;;;;22.57;45.68;100184.17;1692560;83;21122;-41
2021/09/09 08:37:32;;;;;;;16.02;9.65;;;;;;;22.65;45.17;100187.62;1691751;84;21113;-41
2021/09/09 08:39:59;;;;;;;11.90;9.13;;;;;;;22.73;44.97;100185.71;1691698;84;21313;-41
2021/09/09 08:42:26;;;;;;;11.55;8.75;;;;;;;22.80;44.43;100188.34;1692685;83;21154;-41
2021/09/09 08:44:53;;;;;;;11.95;8.33;;;;;;;22.90;43.81;100183.22;1701436;83;21121;-41
2021/09/09 08:47:19;;;;;;;12.40;8.55;;;;;;;22.98;43.85;100187.25;1718058;83;21066;-41
2021/09/09 08:49:46;;;;;;;12.60;8.63;;;;;;;23.09;44.06;100185.08;1680571;83;22119;-41
2021/09/09 08:52:12;;;;;;;12.35;8.85;;;;;;;23.20;43.38;100185.03;1677698;84;21057;-41
2021/09/09 08:54:39;;;;;;;12.15;8.40;;;;;;;23.29;43.41;100185.84;1686884;85;21033;-41
2021/09/09 08:57:07;;;;;;;12.70;8.55;;;;;;;23.43;43.23;100184.80;1687082;85;21532;-41
2021/09/09 08:59:34;;;;;;;15.25;7.95;;;;;;;23.08;42.34;100114.36;1687112;85;21531;-41
2021/09/09 09:02:10;;;;;;;11.55;7.50;;;;;;;23.66;42.48;100191.66;1670481;85;21556;-41
2021/09/09 09:04:38;;;;;;;10.20;7.90;;;;;;;23.75;41.43;100188.48;1671531;85;20985;-41
2021/09/09 09:07:08;;;;;;;11.88;8.10;;;;;;;23.83;41.03;100186.33;1716977;82;25445;-41
2021/09/09 09:09:36;;;;;;;14.15;9.15;;;;;;;23.88;41.34;100182.27;1719682;82;21017;-41
2021/09/09 09:12:07;;;;;;;10.40;8.10;;;;;;;23.96;40.55;100180.91;1727440;82;20949;-41
2021/09/09 09:14:34;;;;;;;12.88;8.30;;;;;;;24.01;40.54;100179.77;1733494;82;22312;-41
2021/09/09 09:17:05;;;;;;;12.18;8.65;;;;;;;24.07;40.84;100176.67;1721748;82;20977;-41
2021/09/09 09:19:38;;;;;;;11.40;8.45;;;;;;;24.17;40.80;100173.51;1705422;82;21025;-41
2021/09/09 09:22:09;;;;;;;11.12;8.23;;;;;;;24.28;39.72;100169.10;1704956;82;21041;-41
2021/09/09 09:24:47;;;;;;;;;;;;;;;24.35;39.73;100169.70;1707709;84;21029;-41
2021/09/09 09:27:20;;;;;;;10.90;7.75;;;;;;;24.47;39.49;100155.16;1705591;84;21110;-41
2021/09/09 09:30:09;;;;;;;12.55;8.58;;;;;;;24.54;38.56;100156.38;1734639;82;21481;-41
2021/09/09 09:32:47;;;;;;;13.48;8.03;;;;;;;24.68;38.50;100153.84;1715111;82;21005;-41
2021/09/09 09:35:16;;;;;;;11.65;8.05;;;;;;;24.78;38.43;100163.88;1705306;84;21563;-41
2021/09/09 09:38:03;;;;;;;12.95;7.62;;;;;;;24.87;38.10;100159.11;1705640;84;21587;-41
2021/09/09 09:40:40;;;;;;;13.60;8.33;;;;;;;24.95;37.89;100152.93;1705325;82;21497;-41
2021/09/09 09:43:08;;;;;;;10.80;7.90;;;;;;;25.09;38.06;100152.53;1705073;83;21029;-41
2021/09/09 09:45:35;;;;;;;15.53;8.05;;;;;;;25.21;36.99;100137.77;1733143;82;20938;-41
2021/09/09 09:48:02;;;;;;;10.20;7.37;;;;;;;25.33;36.21;100135.61;1734940;82;20934;-41
2021/09/09 09:50:39;;;;;;;9.65;7.25;;;;;;;25.40;36.98;100132.64;1747589;82;21095;-41
2021/09/09 09:53:17;;;;;;;9.60;7.97;;;;;;;25.55;37.37;100137.19;1748846;82;21095;-41
2021/09/09 09:55:46;;;;;;;9.50;7.17;;;;;;;25.73;37.42;100134.65;1748607;82;21005;-41
2021/09/09 09:58:13;;;;;;;10.00;7.95;;;;;;;26.00;36.69;100132.19;1747633;82;20989;-41
2021/09/09 10:00:40;;;;;;;10.10;7.83;;;;;;;26.20;35.59;100132.73;1674678;82;21096;-41
2021/09/09 10:03:06;;;;;;;9.65;8.08;;;;;;;26.34;35.56;100132.29;1748977;82;21624;-41
2021/09/09 10:05:38;;;;;;;10.10;7.58;;;;;;;26.41;34.54;100131.28;1720532;82;21285;-41
2021/09/09 10:08:06;;;;;;;8.80;7.50;;;;;;;26.42;35.37;100125.89;1718848;83;21440;-41
2021/09/09 10:10:33;;;;;;;11.38;7.85;;;;;;;26.47;34.84;100123.94;1727992;82;20977;-41
2021/09/09 10:13:00;;;;;;;11.60;7.85;;;;;;;26.51;34.09;100119.64;1732106;82;20979;-41
2021/09/09 10:15:28;;;;;;;11.97;7.22;;;;;;;26.48;34.30;100119.16;1748926;81;20926;-41
2021/09/09 10:17:56;;;;;;;9.53;7.50;;;;;;;26.50;33.72;100113.91;1748833;81;20973;-42
2021/09/09 10:20:34;;;;;;;11.15;7.97;;;;;;;26.52;33.43;100111.47;1748707;82;21028;-41
2021/09/09 10:23:07;;;;;;;9.45;8.10;;;;;;;26.51;34.28;100111.30;1749100;82;21520;-41
2021/09/09 10:25:54;;;;;;;10.18;7.25;;;;;;;26.51;34.19;100109.91;1746651;81;20933;-41
2021/09/09 10:28:42;;;;;;;9.58;7.10;;;;;;;26.54;34.31;100108.99;1748233;82;21279;-41
2021/09/09 10:31:24;;;;;;;8.25;7.20;;;;;;;26.57;33.82;100103.94;1748730;82;21034;-41
2021/09/09 10:33:52;;;;;;;11.88;7.50;;;;;;;26.65;33.68;100109.41;1748879;81;20965;-41
2021/09/09 10:36:45;;;;;;;9.18;7.10;;;;;;;26.69;33.64;100113.62;1748703;82;20937;-41
2021/09/09 10:39:37;;;;;;;10.68;7.33;;;;;;;26.77;32.99;100107.20;1742455;82;21521;-41
2021/09/09 10:42:38;;;;;;;10.50;7.00;;;;;;;26.90;33.71;100100.98;1728254;81;21020;-41
2021/09/09 10:45:09;;;;;;;14.65;7.60;;;;;;;27.08;32.60;100095.55;1719180;82;21143;-42
2021/09/09 10:47:51;;;;;;;17.98;8.48;;;;;;;27.14;32.27;100103.48;1692044;83;21084;-42
2021/09/09 10:50:23;;;;;;;11.30;7.65;;;;;;;27.09;31.36;100097.71;1709541;83;21041;-42
2021/09/09 10:52:59;;;;;;;10.65;7.80;;;;;;;26.99;31.75;100095.48;1686458;84;21014;-42
2021/09/09 10:55:28;;;;;;;9.90;7.25;;;;;;;27.04;32.56;100092.73;1705552;84;21089;-42
2021/09/09 10:58:27;;;;;;;10.65;7.42;;;;;;;27.12;32.23;100082.88;1705665;84;21791;-42
2021/09/09 11:01:08;;;;;;;8.60;6.53;;;;;;;27.21;32.46;100086.49;1705455;84;20974;-42
2021/09/09 11:03:48;;;;;;;11.90;7.47;;;;;;;27.40;32.02;100085.22;1704901;83;20953;-42
2021/09/09 11:06:22;;;;;;;9.83;6.97;;;;;;;27.52;31.97;100087.93;1730297;82;20989;-42
2021/09/09 11:08:54;;;;;;;9.75;7.58;;;;;;;27.66;31.37;100072.66;1734474;82;21489;-42
2021/09/09 11:11:28;;;;;;;9.85;7.10;;;;;;;27.78;31.63;100078.75;1734818;82;21134;-42
2021/09/09 11:13:59;;;;;;;8.53;6.42;;;;;;;27.87;31.55;100072.43;1734745;82;20930;-42
2021/09/09 11:16:31;;;;;;;10.30;7.25;;;;;;;27.93;31.66;100078.31;1734955;82;21017;-42
2021/09/09 11:19:00;;;;;;;10.63;7.30;;;;;;;27.93;30.68;100072.73;1734572;82;20965;-42
2021/09/09 11:21:30;;;;;;;10.95;7.37;;;;;;;27.96;30.41;100060.69;1734684;82;21543;-42